Time;durP1;ratioP1;P1;durP2;ratioP2;P2;SDS_P1;SDS_P2;PMS_P1;PMS_P2;Temp;Humidity;BMP_temperature;BMP_pressure;BME280_temperature;BME280_humidity;BME280_pressure;Samples;Min_cycle;Max_cycle;Signal;HPM_P1;HPM_P2
2022/12/19 00:00:15;;;;;;;34.07;19.10;;;;;;;-0.80;100.00;101834.53;10587578;27;20044;-79
2022/12/19 00:05:16;;;;;;;39.57;21.43;;;;;;;-0.64;100.00;101862.56;10585390;28;20043;-79
2022/12/19 00:10:16;;;;;;;39.87;21.70;;;;;;;-0.67;100.00;101849.31;10584049;28;20043;-77
2022/12/19 00:15:17;;;;;;;41.50;20.27;;;;;;;-0.62;100.00;101829.91;10567349;27;20051;-79
2022/12/19 00:20:17;;;;;;;42.23;21.53;;;;;;;-0.64;100.00;101813.88;10584178;27;20043;-78
2022/12/19 00:25:18;;;;;;;37.87;19.83;;;;;;;-0.63;100.00;101807.44;10567315;27;20040;-78
2022/12/19 00:30:18;;;;;;;40.93;21.90;;;;;;;-0.55;100.00;101797.69;10584477;27;20035;-78
2022/12/19 00:35:19;;;;;;;43.77;22.23;;;;;;;-0.53;100.00;101798.38;10586275;27;20035;-78
2022/12/19 00:40:19;;;;;;;39.73;22.00;;;;;;;-0.55;100.00;101767.94;10572220;28;20052;-79
2022/12/19 00:45:20;;;;;;;44.13;22.67;;;;;;;-0.55;100.00;101757.13;10540713;28;20039;-80
2022/12/19 00:50:20;;;;;;;42.63;22.33;;;;;;;-0.55;100.00;101765.25;10542947;28;20032;-79
2022/12/19 00:55:21;;;;;;;43.50;24.70;;;;;;;-0.76;100.00;101719.66;10524332;28;20047;-78
2022/12/19 01:00:21;;;;;;;41.67;21.67;;;;;;;-0.41;100.00;101760.09;10539406;28;20051;-79
2022/12/19 01:05:22;;;;;;;43.45;21.42;;;;;;;-0.44;100.00;101738.75;10543233;28;20113;-79
2022/12/19 01:10:22;;;;;;;41.77;22.50;;;;;;;-0.53;100.00;101701.00;10545923;28;20113;-79
2022/12/19 01:15:23;;;;;;;39.83;21.93;;;;;;;-0.38;100.00;101714.78;10580165;28;20038;-79
2022/12/19 01:20:23;;;;;;;39.13;22.03;;;;;;;-0.29;100.00;101721.91;10548827;28;20035;-79
2022/12/19 01:25:24;;;;;;;40.73;22.10;;;;;;;-0.32;100.00;101693.31;10565066;27;20043;-79
2022/12/19 01:30:25;;;;;;;43.63;23.00;;;;;;;-0.34;100.00;101687.22;10582213;28;20032;-79
2022/12/19 01:35:25;;;;;;;40.93;22.50;;;;;;;-0.24;100.00;101693.34;10548346;28;20078;-79
2022/12/19 01:40:26;;;;;;;40.97;21.93;;;;;;;-0.18;100.00;101707.25;10543810;28;20048;-78
2022/12/19 01:45:31;;;;;;;40.95;21.55;;;;;;;-0.26;100.00;101692.66;10536313;28;20040;-78
2022/12/19 01:50:43;;;;;;;48.57;25.10;;;;;;;-0.13;100.00;101696.78;10522358;28;20067;-78
2022/12/19 01:55:43;;;;;;;53.07;24.77;;;;;;;-0.19;100.00;101659.53;10539420;28;20101;-78
2022/12/19 02:00:44;;;;;;;44.87;23.17;;;;;;;-0.18;100.00;101656.69;10511367;28;20051;-78
2022/12/19 02:05:44;;;;;;;44.20;23.47;;;;;;;-0.07;100.00;101664.47;10585278;27;20043;-78
2022/12/19 02:10:45;;;;;;;53.43;25.23;;;;;;;-0.02;100.00;101666.72;10573696;27;20039;-78
2022/12/19 02:15:59;;;;;;;45.27;25.60;;;;;;;-0.03;100.00;101648.75;10571274;27;20032;-78
2022/12/19 02:21:13;;;;;;;53.83;26.07;;;;;;;0.07;100.00;101635.09;10528910;28;20042;-78
2022/12/19 02:26:29;;;;;;;46.30;24.17;;;;;;;0.08;100.00;101632.19;10547669;28;20392;-77
2022/12/19 02:31:34;;;;;;;47.05;24.77;;;;;;;0.14;100.00;101617.16;10546699;28;20036;-78
2022/12/19 02:36:44;;;;;;;43.77;24.47;;;;;;;0.17;100.00;101614.97;10529734;28;20552;-79
2022/12/19 02:41:48;;;;;;;49.23;24.13;;;;;;;0.26;100.00;101609.56;10546711;28;20107;-78
2022/12/19 02:46:49;;;;;;;48.50;26.63;;;;;;;0.31;100.00;101628.84;10525285;28;20035;-77
2022/12/19 02:51:49;;;;;;;46.87;24.93;;;;;;;0.28;100.00;101610.22;10571520;27;20043;-77
2022/12/19 02:57:08;;;;;;;51.03;24.77;;;;;;;0.36;100.00;101632.75;10571744;27;20031;-78
2022/12/19 03:02:32;;;;;;;55.03;26.70;;;;;;;0.35;100.00;101614.81;10585305;27;20046;-78
2022/12/19 03:07:39;;;;;;;56.30;28.47;;;;;;;0.38;100.00;101619.03;10586791;27;20445;-77
2022/12/19 03:12:51;;;;;;;56.17;30.13;;;;;;;0.33;100.00;101597.00;10585299;27;20031;-78
2022/12/19 03:17:54;;;;;;;63.70;29.33;;;;;;;0.30;100.00;101605.50;10570665;27;20043;-78
2022/12/19 03:22:54;;;;;;;56.30;29.37;;;;;;;0.35;100.00;101603.97;10524951;28;20040;-77
2022/12/19 03:27:55;;;;;;;70.10;33.53;;;;;;;0.28;100.00;101580.44;10510872;28;20036;-77
2022/12/19 03:32:55;;;;;;;67.93;30.83;;;;;;;0.34;100.00;101579.75;10494411;28;20454;-78
2022/12/19 03:37:56;;;;;;;75.40;35.27;;;;;;;0.35;100.00;101576.03;10526515;28;20081;-78
2022/12/19 03:43:09;;;;;;;76.37;36.03;;;;;;;0.33;100.00;101568.09;10510622;28;20043;-77
2022/12/19 03:48:13;;;;;;;81.27;38.53;;;;;;;0.30;100.00;101556.75;10545851;27;20446;-77
2022/12/19 03:53:23;;;;;;;88.03;36.60;;;;;;;0.38;100.00;101554.88;10552274;27;20403;-76
2022/12/19 03:58:34;;;;;;;92.90;38.07;;;;;;;0.39;100.00;101550.28;10551581;28;20059;-77
2022/12/19 04:03:35;;;;;;;80.47;38.50;;;;;;;0.52;100.00;101564.16;10568318;27;20028;-76
2022/12/19 04:08:35;;;;;;;84.97;40.10;;;;;;;0.47;100.00;101536.72;10551105;27;20059;-76
2022/12/19 04:13:46;;;;;;;90.97;41.60;;;;;;;0.56;100.00;101529.47;10568692;27;20408;-76
2022/12/19 04:18:54;;;;;;;93.85;39.67;;;;;;;0.62;100.00;101530.59;10550350;27;20042;-77
2022/12/19 04:23:59;;;;;;;88.10;38.63;;;;;;;0.75;100.00;101509.25;10555849;28;20114;-78
2022/12/19 04:29:01;;;;;;;99.38;43.55;;;;;;;0.75;100.00;101496.53;10507257;28;20099;-77
2022/12/19 04:34:02;;;;;;;101.03;42.10;;;;;;;0.78;100.00;101496.16;10542099;28;20036;-76
2022/12/19 04:39:02;;;;;;;110.47;45.70;;;;;;;0.79;100.00;101486.19;10542023;28;20036;-76
2022/12/19 04:44:03;;;;;;;103.00;45.37;;;;;;;0.82;100.00;101475.00;10524716;28;20095;-76
2022/12/19 04:49:03;;;;;;;101.20;41.28;;;;;;;0.86;100.00;101465.50;10548719;27;20484;-76
2022/12/19 04:54:04;;;;;;;98.50;44.50;;;;;;;0.90;100.00;101483.09;10582380;27;20028;-76
2022/12/19 04:59:04;;;;;;;107.73;45.80;;;;;;;0.94;100.00;101473.59;10566797;27;20073;-74
2022/12/19 05:04:05;;;;;;;106.33;45.80;;;;;;;1.06;100.00;101478.63;10532943;28;21546;-76
2022/12/19 05:09:09;;;;;;;111.13;46.10;;;;;;;1.06;100.00;101454.22;10566725;28;20079;-76
2022/12/19 05:14:09;;;;;;;104.80;45.43;;;;;;;1.17;100.00;101464.66;10583274;28;20043;-76
2022/12/19 05:19:10;;;;;;;108.20;45.77;;;;;;;1.22;100.00;101454.16;10548090;28;20124;-76
2022/12/19 05:24:10;;;;;;;106.87;47.27;;;;;;;1.27;100.00;101448.19;10539785;28;20447;-76
2022/12/19 05:29:11;;;;;;;110.17;44.10;;;;;;;1.23;100.00;101444.97;10557049;28;20029;-77
2022/12/19 05:34:11;;;;;;;103.20;46.80;;;;;;;1.25;100.00;101417.69;10557102;28;20085;-76
2022/12/19 05:39:12;;;;;;;109.30;47.00;;;;;;;1.38;100.00;101437.72;10540557;28;20392;-76
2022/12/19 05:44:12;;;;;;;110.73;48.13;;;;;;;1.33;100.00;101417.63;10541603;27;20123;-77
2022/12/19 05:49:15;;;;;;;113.77;49.87;;;;;;;1.39;100.00;101417.72;10563541;27;20036;-70
2022/12/19 05:54:16;;;;;;;122.23;48.00;;;;;;;1.39;100.00;101422.31;10575859;28;20097;-72
2022/12/19 05:59:16;;;;;;;113.97;46.80;;;;;;;1.34;100.00;101394.88;10547704;28;20066;-74
2022/12/19 06:04:17;;;;;;;120.27;48.03;;;;;;;1.53;100.00;101435.13;10547632;28;20044;-74
2022/12/19 06:09:17;;;;;;;111.07;47.42;;;;;;;1.55;100.00;101415.91;10522811;28;20564;-74
2022/12/19 06:14:18;;;;;;;122.23;48.57;;;;;;;1.33;100.00;101368.78;10522749;28;20048;-72
2022/12/19 06:19:18;;;;;;;116.77;46.87;;;;;;;1.69;100.00;101415.13;10539271;28;20044;-72
2022/12/19 06:24:20;;;;;;;120.63;49.17;;;;;;;1.66;100.00;101401.94;10539950;28;20044;-75
2022/12/19 06:29:20;;;;;;;111.97;47.60;;;;;;;1.72;100.00;101417.47;10521790;28;20028;-73
2022/12/19 06:34:21;;;;;;;111.07;48.10;;;;;;;1.73;100.00;101397.44;10516515;28;20127;-70
2022/12/19 06:39:22;;;;;;;122.38;46.42;;;;;;;1.76;100.00;101385.41;10506726;28;20039;-73
2022/12/19 06:44:22;;;;;;;120.23;47.00;;;;;;;1.86;100.00;101395.97;10531013;28;20039;-73
2022/12/19 06:49:22;;;;;;;112.38;43.78;;;;;;;1.79;100.00;101388.56;10553325;27;20031;-73
2022/12/19 06:54:23;;;;;;;111.37;45.83;;;;;;;1.90;100.00;101408.16;10554280;27;20031;-73
2022/12/19 06:59:23;;;;;;;108.53;44.30;;;;;;;2.01;100.00;101405.00;10581477;27;20058;-74
2022/12/19 07:04:33;;;;;;;100.72;45.28;;;;;;;2.02;100.00;101374.09;10542733;27;20085;-73
2022/12/19 07:09:33;;;;;;;115.30;46.73;;;;;;;2.10;100.00;101370.44;10547178;27;20036;-72
2022/12/19 07:14:34;;;;;;;108.65;44.47;;;;;;;2.16;100.00;101383.28;10521585;28;20126;-74
2022/12/19 07:19:35;;;;;;;108.63;43.33;;;;;;;2.17;100.00;101380.41;10527917;28;20066;-74
2022/12/19 07:24:36;;;;;;;105.83;46.50;;;;;;;2.18;100.00;101375.78;10511234;28;20032;-74
2022/12/19 07:29:36;;;;;;;106.00;45.72;;;;;;;2.26;100.00;101391.16;10544274;28;20028;-74
2022/12/19 07:34:36;;;;;;;119.47;46.63;;;;;;;2.32;100.00;101388.53;10528666;28;20399;-71
2022/12/19 07:39:37;;;;;;;108.93;45.33;;;;;;;2.39;100.00;101394.91;10535335;28;20097;-71
2022/12/19 07:44:38;;;;;;;111.13;44.50;;;;;;;2.43;100.00;101387.22;10533279;28;20408;-72
2022/12/19 07:49:38;;;;;;;100.70;44.23;;;;;;;2.41;100.00;101379.25;10509330;28;20500;-71
2022/12/19 07:54:39;;;;;;;97.17;43.00;;;;;;;2.53;100.00;101373.34;10526745;28;20035;-73
2022/12/19 07:59:40;;;;;;;88.43;44.33;;;;;;;2.68;100.00;101374.16;10525905;28;20465;-71
2022/12/19 08:04:40;;;;;;;91.93;41.08;;;;;;;2.77;100.00;101377.59;10526878;28;20036;-71
2022/12/19 08:09:41;;;;;;;101.63;40.90;;;;;;;2.78;100.00;101373.88;10527049;28;20136;-71
2022/12/19 08:14:41;;;;;;;89.13;38.88;;;;;;;2.95;100.00;101382.66;10525595;28;20089;-73
2022/12/19 08:19:42;;;;;;;88.70;41.67;;;;;;;3.01;100.00;101385.44;10582185;28;20035;-72
2022/12/19 08:24:42;;;;;;;87.55;40.92;;;;;;;3.15;100.00;101372.00;10550838;27;20055;-72
2022/12/19 08:29:43;;;;;;;90.38;42.90;;;;;;;3.32;100.00;101387.03;10560826;27;20062;-72
2022/12/19 08:34:43;;;;;;;83.78;35.72;;;;;;;3.36;100.00;101377.44;10543955;27;20047;-72
2022/12/19 08:39:44;;;;;;;73.25;34.83;;;;;;;3.42;100.00;101375.81;10538641;28;20169;-72
2022/12/19 08:44:45;;;;;;;77.63;35.58;;;;;;;3.52;100.00;101372.78;10539977;28;20042;-70
2022/12/19 08:49:45;;;;;;;70.35;34.60;;;;;;;3.54;100.00;101367.97;10527261;28;20040;-72
2022/12/19 08:54:46;;;;;;;76.82;35.08;;;;;;;3.62;100.00;101376.00;10506927;28;20039;-71
2022/12/19 08:59:46;;;;;;;80.97;36.75;;;;;;;3.68;100.00;101372.50;10584476;27;20036;-72
2022/12/19 09:04:47;;;;;;;70.72;33.40;;;;;;;3.74;100.00;101379.03;10532237;28;20115;-71
2022/12/19 09:09:47;;;;;;;58.72;29.73;;;;;;;3.86;100.00;101376.63;10549329;27;20032;-71
2022/12/19 09:14:48;;;;;;;62.25;31.05;;;;;;;3.84;100.00;101364.06;10564602;27;20032;-71
2022/12/19 09:19:48;;;;;;;69.22;31.08;;;;;;;3.98;100.00;101364.13;10548349;27;20066;-72
2022/12/19 09:24:49;;;;;;;63.22;33.20;;;;;;;4.01;100.00;101361.00;10530814;27;20043;-69
2022/12/19 09:29:49;;;;;;;61.65;30.50;;;;;;;4.14;100.00;101374.72;10536552;27;20039;-71
2022/12/19 09:34:50;;;;;;;56.83;32.00;;;;;;;4.19;100.00;101361.31;10560642;28;20316;-71
2022/12/19 09:39:50;;;;;;;63.65;33.03;;;;;;;4.32;100.00;101365.19;10506066;28;20043;-72
2022/12/19 09:45:19;;;;;;;63.67;34.38;;;;;;;4.52;100.00;101384.38;10514572;28;20060;-72
2022/12/19 09:50:57;;;;;;;70.47;34.67;;;;;;;4.58;100.00;101381.69;10544947;28;20134;-73
2022/12/19 09:55:58;;;;;;;76.45;38.75;;;;;;;4.64;100.00;101380.88;10541559;28;20059;-71
2022/12/19 10:01:01;;;;;;;71.93;37.13;;;;;;;4.75;100.00;101386.78;10525672;28;20124;-71
2022/12/19 10:06:02;;;;;;;74.15;39.53;;;;;;;4.86;100.00;101383.50;10561131;28;20047;-72
2022/12/19 10:11:15;;;;;;;74.10;40.88;;;;;;;4.81;100.00;101369.63;10527885;28;20040;-72
2022/12/19 10:16:53;;;;;;;75.72;40.55;;;;;;;4.92;100.00;101382.69;10523157;28;20044;-72
2022/12/19 10:21:54;;;;;;;74.68;39.45;;;;;;;4.95;100.00;101384.16;10558060;28;20056;-72
2022/12/19 10:27:05;;;;;;;74.40;39.90;;;;;;;5.01;100.00;101397.81;10566664;27;20032;-71
2022/12/19 10:32:17;;;;;;;81.30;41.38;;;;;;;5.08;100.00;101389.63;10561855;27;20051;-72
2022/12/19 10:37:28;;;;;;;73.55;38.10;;;;;;;5.15;100.00;101381.50;10520159;28;20040;-71
2022/12/19 10:42:57;;;;;;;64.20;34.88;;;;;;;5.17;100.00;101391.16;10529019;28;20047;-71
2022/12/19 10:47:57;;;;;;;58.63;33.72;;;;;;;5.17;100.00;101371.22;10542419;28;20034;-72
2022/12/19 10:53:06;;;;;;;60.35;34.75;;;;;;;5.21;100.00;101375.22;10511348;28;20024;-71
2022/12/19 10:58:24;;;;;;;63.35;35.67;;;;;;;5.25;100.00;101377.31;10527480;28;20550;-71
2022/12/19 11:03:24;;;;;;;56.78;34.90;;;;;;;5.36;100.00;101378.59;10530810;27;20417;-72
2022/12/19 11:08:26;;;;;;;62.10;35.50;;;;;;;5.41;100.00;101381.53;10509877;28;20093;-72
2022/12/19 11:13:37;;;;;;;54.83;32.80;;;;;;;5.41;100.00;101376.06;10528541;28;20059;-72
2022/12/19 11:18:45;;;;;;;52.80;32.58;;;;;;;5.49;100.00;101357.81;10540697;27;20070;-72
2022/12/19 11:24:00;;;;;;;45.63;31.25;;;;;;;5.45;100.00;101352.75;10529248;27;20089;-72
2022/12/19 11:29:20;;;;;;;58.38;37.33;;;;;;;5.57;100.00;101361.16;10531761;28;20040;-71
2022/12/19 11:34:25;;;;;;;49.97;30.88;;;;;;;5.57;100.00;101363.91;10565002;27;20040;-72
2022/12/19 11:39:54;;;;;;;51.15;35.13;;;;;;;5.59;100.00;101356.34;10562216;27;20039;-72
2022/12/19 11:45:15;;;;;;;50.28;32.05;;;;;;;5.70;100.00;101354.88;10553253;28;20047;-72
2022/12/19 11:50:27;;;;;;;40.95;30.83;;;;;;;5.66;100.00;101346.28;10580694;27;20044;-73
2022/12/19 11:55:49;;;;;;;46.25;29.05;;;;;;;5.73;100.00;101361.81;10541189;28;20036;-73
2022/12/19 12:01:01;;;;;;;44.92;29.58;;;;;;;5.78;100.00;101351.91;10559016;27;20051;-72
2022/12/19 12:06:06;;;;;;;41.90;28.45;;;;;;;5.76;100.00;101334.06;10558972;27;20447;-73
2022/12/19 12:11:26;;;;;;;41.45;28.50;;;;;;;5.83;100.00;101332.19;10547639;27;20067;-72
2022/12/19 12:17:05;;;;;;;42.78;29.50;;;;;;;5.95;100.00;101343.31;10547176;28;20040;-73
2022/12/19 12:22:24;;;;;;;42.13;28.35;;;;;;;5.92;100.00;101333.63;10536106;28;20036;-73
2022/12/19 12:28:03;;;;;;;40.80;30.20;;;;;;;5.97;100.00;101335.75;10538472;28;20032;-72
2022/12/19 12:33:29;;;;;;;40.35;29.42;;;;;;;5.99;100.00;101333.66;10534199;28;20044;-73
2022/12/19 12:38:47;;;;;;;41.67;27.83;;;;;;;5.99;100.00;101323.53;10525810;28;20047;-73
2022/12/19 12:44:20;;;;;;;41.53;29.45;;;;;;;5.95;100.00;101308.63;10522107;28;20036;-72
2022/12/19 12:49:36;;;;;;;39.08;26.42;;;;;;;5.96;100.00;101320.41;10491625;28;20044;-73
2022/12/19 12:54:38;;;;;;;42.67;29.13;;;;;;;5.61;100.00;101255.06;10509703;28;20047;-73
2022/12/19 12:59:39;;;;;;;41.67;28.05;;;;;;;6.08;100.00;101313.25;10545196;28;20066;-73
2022/12/19 13:04:56;;;;;;;44.15;29.27;;;;;;;6.15;100.00;101322.25;10514550;27;20036;-72
2022/12/19 13:10:24;;;;;;;38.30;28.48;;;;;;;6.06;100.00;101304.44;10539412;28;20043;-73
2022/12/19 13:15:27;;;;;;;35.50;27.65;;;;;;;6.15;100.00;101322.25;10579414;27;20063;-73
2022/12/19 13:20:28;;;;;;;37.25;27.92;;;;;;;6.19;100.00;101307.09;10571835;27;20058;-73
2022/12/19 13:25:35;;;;;;;39.88;26.83;;;;;;;6.25;100.00;101317.19;10539804;28;20036;-73
2022/12/19 13:30:36;;;;;;;35.78;25.90;;;;;;;6.22;100.00;101314.91;10561375;28;20032;-73
2022/12/19 13:35:36;;;;;;;32.47;26.30;;;;;;;6.21;100.00;101310.47;10537033;27;20042;-73
2022/12/19 13:40:43;;;;;;;33.75;26.45;;;;;;;6.29;100.00;101311.31;10528007;28;20031;-72
2022/12/19 13:45:57;;;;;;;36.13;26.30;;;;;;;6.30;100.00;101296.56;10563199;28;20039;-72
2022/12/19 13:51:02;;;;;;;38.22;26.98;;;;;;;6.36;100.00;101277.38;10547518;28;20044;-72
2022/12/19 13:56:05;;;;;;;38.97;27.05;;;;;;;6.43;100.00;101272.75;10537651;27;20396;-73
2022/12/19 14:01:07;;;;;;;36.00;26.10;;;;;;;6.48;100.00;101252.94;10554625;27;20552;-72
2022/12/19 14:06:14;;;;;;;41.65;28.10;;;;;;;6.42;100.00;101272.97;10531770;27;20040;-73
2022/12/19 14:11:16;;;;;;;38.75;27.27;;;;;;;6.48;100.00;101272.09;10530745;28;20036;-72
2022/12/19 14:16:17;;;;;;;36.80;27.48;;;;;;;6.46;100.00;101266.00;10514114;28;20109;-73
2022/12/19 14:21:20;;;;;;;40.65;25.27;;;;;;;6.56;100.00;101266.38;10551005;27;20048;-72
2022/12/19 14:26:25;;;;;;;29.85;24.83;;;;;;;6.51;100.00;101255.25;10573665;27;20042;-73
2022/12/19 14:31:25;;;;;;;34.35;25.48;;;;;;;6.57;100.00;101251.63;10535201;27;20047;-72
2022/12/19 14:36:27;;;;;;;34.08;26.23;;;;;;;6.56;100.00;101244.47;10554208;27;20054;-73
2022/12/19 14:47:09;;;;;;;31.48;23.23;;;;;;;6.60;100.00;101262.13;10557384;28;20042;-73
2022/12/19 14:52:31;;;;;;;32.50;23.75;;;;;;;6.65;100.00;101256.00;10535074;27;20118;-72
2022/12/19 14:57:32;;;;;;;26.48;22.33;;;;;;;6.59;100.00;101246.75;10548651;27;20036;-72
2022/12/19 15:02:33;;;;;;;23.63;21.17;;;;;;;6.56;100.00;101233.53;10528777;27;20046;-73
2022/12/19 15:07:34;;;;;;;22.38;19.98;;;;;;;6.62;100.00;101240.03;10539493;28;20063;-77
2022/12/19 15:13:25;;;;;;;31.90;21.65;;;;;;;6.70;100.00;101248.00;10553854;27;20068;-77
2022/12/19 15:18:31;;;;;;;23.45;20.58;;;;;;;6.73;100.00;101242.06;10564139;27;20044;-77
2022/12/19 15:23:32;;;;;;;21.52;19.17;;;;;;;6.81;100.00;101230.03;10566054;28;20040;-77
2022/12/19 15:28:49;;;;;;;22.25;19.90;;;;;;;6.83;100.00;101236.13;10568405;27;20390;-76
2022/12/19 15:33:50;;;;;;;23.15;19.58;;;;;;;6.89;100.00;101232.50;10555209;27;20044;-75
2022/12/19 15:38:50;;;;;;;22.13;19.83;;;;;;;6.91;100.00;101224.91;10567304;28;20042;-77
2022/12/19 15:43:51;;;;;;;23.15;20.63;;;;;;;6.89;100.00;101227.03;10565718;27;20114;-77
2022/12/19 15:48:51;;;;;;;20.98;18.75;;;;;;;6.96;100.00;101230.53;10547323;27;20040;-76
2022/12/19 15:53:51;;;;;;;23.67;21.40;;;;;;;7.02;100.00;101234.28;10548502;27;20028;-77
2022/12/19 15:58:52;;;;;;;21.73;19.08;;;;;;;7.00;100.00;101241.91;10562848;27;20039;-77
2022/12/19 16:03:52;;;;;;;22.00;19.80;;;;;;;7.00;100.00;101252.84;10545991;28;20047;-74
2022/12/19 16:08:53;;;;;;;23.05;20.77;;;;;;;6.97;100.00;101253.31;10531495;27;20044;-76
2022/12/19 16:13:54;;;;;;;23.60;20.88;;;;;;;6.94;100.00;101260.03;10564726;27;20040;-72
2022/12/19 16:18:55;;;;;;;23.73;20.52;;;;;;;6.90;100.00;101255.22;10546865;28;20047;-68
2022/12/19 16:23:56;;;;;;;22.70;20.10;;;;;;;6.79;100.00;101267.72;10561439;28;20104;-77
2022/12/19 16:28:56;;;;;;;24.15;21.63;;;;;;;6.72;100.00;101277.84;10561715;27;20036;-75
2022/12/19 16:33:57;;;;;;;23.98;20.88;;;;;;;6.66;100.00;101269.47;10560903;27;20035;-76
2022/12/19 16:38:57;;;;;;;28.25;23.13;;;;;;;6.62;100.00;101257.28;10563455;27;20040;-75
2022/12/19 16:43:58;;;;;;;30.95;23.35;;;;;;;6.57;100.00;101246.16;10558600;27;20028;-75
2022/12/19 16:48:58;;;;;;;28.67;22.77;;;;;;;6.49;100.00;101224.53;10540837;28;20040;-76
2022/12/19 16:53:59;;;;;;;28.05;21.48;;;;;;;6.52;100.00;101237.78;10541275;28;20085;-76
2022/12/19 16:59:01;;;;;;;28.23;21.85;;;;;;;6.56;100.00;101247.22;10540956;28;20035;-76
2022/12/19 17:04:01;;;;;;;27.17;21.42;;;;;;;6.21;100.00;101205.75;10524696;28;20412;-75
2022/12/19 17:09:02;;;;;;;26.88;22.40;;;;;;;6.56;100.00;101247.22;10505547;28;20036;-75
2022/12/19 17:14:07;;;;;;;26.48;22.00;;;;;;;6.58;100.00;101245.09;10539408;28;20427;-75
2022/12/19 17:19:16;;;;;;;24.65;21.90;;;;;;;6.58;100.00;101220.47;10521723;28;20182;-75
2022/12/19 17:24:16;;;;;;;25.42;21.85;;;;;;;6.60;100.00;101212.91;10541046;28;20188;-76
2022/12/19 17:29:17;;;;;;;27.05;24.10;;;;;;;6.62;100.00;101213.50;10522825;28;20060;-75
2022/12/19 17:34:25;;;;;;;27.70;22.73;;;;;;;6.56;100.00;101208.91;10541575;28;20319;-74
2022/12/19 17:39:27;;;;;;;29.23;23.27;;;;;;;6.58;100.00;101242.38;10540163;28;20036;-75
2022/12/19 17:44:28;;;;;;;24.90;22.23;;;;;;;6.50;100.00;101226.22;10580564;28;20032;-76
2022/12/19 17:49:29;;;;;;;26.02;23.30;;;;;;;6.56;100.00;101219.88;10534409;28;20036;-75
2022/12/19 17:54:29;;;;;;;23.48;20.70;;;;;;;6.56;100.00;101219.03;10581028;28;20039;-75
2022/12/19 17:59:30;;;;;;;21.77;18.75;;;;;;;6.61;100.00;101206.34;10583022;28;20036;-76
2022/12/19 18:04:30;;;;;;;23.25;20.83;;;;;;;6.64;100.00;101200.44;10583804;28;20526;-75
2022/12/19 18:09:31;;;;;;;20.02;17.90;;;;;;;6.62;100.00;101213.50;10565353;28;20032;-75
2022/12/19 18:14:31;;;;;;;21.38;18.63;;;;;;;6.61;100.00;101203.63;10581458;28;20031;-75
2022/12/19 18:19:32;;;;;;;24.67;19.77;;;;;;;6.64;100.00;101205.94;10581060;28;20031;-76
2022/12/19 18:24:32;;;;;;;20.60;16.88;;;;;;;6.71;100.00;101205.03;10547087;28;20039;-70
2022/12/19 18:29:32;;;;;;;17.52;15.65;;;;;;;6.78;100.00;101195.75;10581622;28;20047;-75
2022/12/19 18:34:34;;;;;;;16.60;14.90;;;;;;;6.84;100.00;101194.00;10576675;28;20097;-75
2022/12/19 18:39:34;;;;;;;15.90;14.30;;;;;;;6.78;100.00;101189.41;10573667;28;20065;-75
2022/12/19 18:44:35;;;;;;;17.60;14.65;;;;;;;6.65;100.00;101199.38;10572328;28;20031;-74
2022/12/19 18:49:36;;;;;;;18.75;13.27;;;;;;;6.65;100.00;101213.06;10587733;27;20039;-75
2022/12/19 18:54:36;;;;;;;18.23;13.40;;;;;;;6.65;100.00;101218.53;10571267;27;20039;-75
2022/12/19 18:59:37;;;;;;;14.13;12.68;;;;;;;6.58;100.00;101217.75;10569225;27;20050;-75
2022/12/19 19:04:38;;;;;;;14.98;13.38;;;;;;;6.61;100.00;101211.81;10571195;27;20042;-75
2022/12/19 19:09:38;;;;;;;13.80;12.30;;;;;;;6.61;100.00;101203.63;10588279;27;20042;-76
2022/12/19 19:14:40;;;;;;;16.15;13.43;;;;;;;6.61;100.00;101195.41;10588034;27;20027;-75
2022/12/19 19:19:40;;;;;;;12.45;11.23;;;;;;;6.59;100.00;101219.41;10587487;27;20055;-77
2022/12/19 19:24:41;;;;;;;13.75;12.00;;;;;;;6.58;100.00;101220.47;10587467;27;20036;-75
2022/12/19 19:29:41;;;;;;;14.15;12.38;;;;;;;6.50;100.00;101219.91;10587750;27;20043;-69
2022/12/19 19:34:42;;;;;;;13.57;11.73;;;;;;;6.52;100.00;101229.56;10551796;27;20073;-75
2022/12/19 19:39:42;;;;;;;16.95;12.00;;;;;;;6.51;100.00;101233.38;10545110;27;20040;-75
2022/12/19 19:44:44;;;;;;;14.63;12.35;;;;;;;6.44;100.00;101230.66;10564519;27;20039;-76
2022/12/19 19:49:44;;;;;;;15.63;12.98;;;;;;;6.44;100.00;101224.34;10586859;27;20048;-75
2022/12/19 19:54:45;;;;;;;13.77;12.30;;;;;;;6.31;100.00;101208.03;10567577;27;20035;-75
2022/12/19 19:59:45;;;;;;;15.75;12.10;;;;;;;6.43;100.00;101214.47;10585612;27;20039;-75
2022/12/19 20:04:46;;;;;;;12.48;11.38;;;;;;;6.41;100.00;101211.13;10552645;27;20043;-75
2022/12/19 20:09:46;;;;;;;13.02;11.40;;;;;;;6.38;100.00;101226.06;10570091;27;20039;-74
2022/12/19 20:14:47;;;;;;;18.92;12.25;;;;;;;6.32;100.00;101242.50;10554965;27;20040;-74
2022/12/19 20:19:47;;;;;;;13.55;12.20;;;;;;;6.25;100.00;101239.78;10582645;27;20065;-76
2022/12/19 20:24:48;;;;;;;15.77;12.40;;;;;;;6.23;100.00;101231.81;10567201;27;20036;-71
2022/12/19 20:29:48;;;;;;;17.13;12.60;;;;;;;6.26;100.00;101239.59;10584600;27;20081;-75
2022/12/19 20:34:49;;;;;;;14.85;12.50;;;;;;;6.22;100.00;101223.81;10561949;27;20031;-74
2022/12/19 20:39:50;;;;;;;13.50;11.73;;;;;;;6.29;100.00;101246.50;10584659;27;20039;-73
2022/12/19 20:44:51;;;;;;;12.70;10.85;;;;;;;6.16;100.00;101233.75;10583606;27;20251;-73
2022/12/19 20:49:51;;;;;;;13.75;12.40;;;;;;;6.19;100.00;101260.63;10566740;28;20062;-75
2022/12/19 20:54:52;;;;;;;14.02;12.52;;;;;;;6.20;100.00;101254.13;10570196;28;20027;-75
2022/12/19 20:59:52;;;;;;;14.63;12.63;;;;;;;6.22;100.00;101243.81;10583065;27;20042;-75
2022/12/19 21:04:53;;;;;;;13.50;11.93;;;;;;;6.23;100.00;101250.09;10584099;27;20035;-75
2022/12/19 21:09:53;;;;;;;18.67;12.38;;;;;;;6.29;100.00;101256.63;10572545;28;20042;-75
2022/12/19 21:14:54;;;;;;;15.07;10.82;;;;;;;6.40;100.00;101264.97;10568054;27;20031;-74
2022/12/19 21:19:54;;;;;;;14.20;11.25;;;;;;;6.54;100.00;101270.38;10545614;28;20051;-74
2022/12/19 21:24:55;;;;;;;17.63;11.70;;;;;;;6.61;100.00;101247.38;10577942;28;20024;-75
2022/12/19 21:29:55;;;;;;;12.63;11.38;;;;;;;6.68;100.00;101244.63;10582747;28;20058;-74
2022/12/19 21:34:56;;;;;;;12.02;10.88;;;;;;;6.69;100.00;101220.84;10565643;28;20032;-74
2022/12/19 21:39:57;;;;;;;13.15;10.90;;;;;;;6.91;100.00;101233.13;10556497;28;20072;-75
2022/12/19 21:44:57;;;;;;;17.13;10.77;;;;;;;7.02;100.00;101215.97;10583661;28;20061;-75
2022/12/19 21:49:58;;;;;;;10.13;9.13;;;;;;;7.14;100.00;101212.53;10581776;28;20081;-75
2022/12/19 21:54:58;;;;;;;11.55;9.93;;;;;;;7.17;100.00;101225.75;10580900;28;20039;-70
2022/12/19 21:59:59;;;;;;;9.88;9.00;;;;;;;7.29;100.00;101218.50;10584253;28;20039;-74
2022/12/19 22:04:59;;;;;;;10.40;9.38;;;;;;;7.35;100.00;101216.75;10580604;28;20322;-76
2022/12/19 22:10:00;;;;;;;9.25;8.30;;;;;;;7.44;100.00;101219.00;10581849;28;20042;-76
2022/12/19 22:15:00;;;;;;;10.95;9.90;;;;;;;7.48;100.00;101219.38;10583096;27;20116;-75
2022/12/19 22:20:01;;;;;;;10.65;8.95;;;;;;;7.47;100.00;101204.00;10600223;27;20050;-77
2022/12/19 22:25:01;;;;;;;10.57;9.18;;;;;;;7.60;100.00;101208.50;10588458;28;20042;-77
2022/12/19 22:30:02;;;;;;;9.95;8.90;;;;;;;7.59;100.00;101215.06;10589442;27;20540;-77
2022/12/19 22:35:03;;;;;;;10.52;9.15;;;;;;;7.60;100.00;101205.78;10589664;27;20046;-77
2022/12/19 22:40:04;;;;;;;11.73;8.98;;;;;;;7.58;100.00;101210.63;10589542;27;20036;-76
2022/12/19 22:45:05;;;;;;;13.50;9.30;;;;;;;7.60;100.00;101214.00;10605965;27;20107;-76